sensor_id;sensor_type;location;lat;lon;timestamp;P1;durP1;ratioP1;P2;durP2;ratioP2
26696;SDS011;14312;52.614;13.496;2023-02-26T08:32:11;1.23;;;0.60;;
26696;SDS011;14312;52.614;13.496;2023-02-26T08:35:00;1.17;;;0.47;;
26696;SDS011;14312;52.614;13.496;2023-02-26T08:37:46;1.33;;;0.77;;
26696;SDS011;14312;52.614;13.496;2023-02-26T08:40:32;0.87;;;0.63;;
26696;SDS011;14312;52.614;13.496;2023-02-26T08:43:18;2.20;;;0.70;;
26696;SDS011;14312;52.614;13.496;2023-02-26T08:46:05;2.53;;;0.75;;
26696;SDS011;14312;52.614;13.496;2023-02-26T08:48:51;1.00;;;0.70;;
26696;SDS011;14312;52.614;13.496;2023-02-26T08:51:37;1.73;;;0.70;;
26696;SDS011;14312;52.614;13.496;2023-02-26T08:54:23;0.77;;;0.67;;
26696;SDS011;14312;52.614;13.496;2023-02-26T08:57:09;1.98;;;0.60;;
26696;SDS011;14312;52.614;13.496;2023-02-26T08:59:55;1.13;;;0.50;;
26696;SDS011;14312;52.614;13.496;2023-02-26T09:02:41;0.83;;;0.57;;
26696;SDS011;14312;52.614;13.496;2023-02-26T09:05:27;0.90;;;0.70;;
26696;SDS011;14312;52.614;13.496;2023-02-26T09:08:13;0.82;;;0.60;;
26696;SDS011;14312;52.614;13.496;2023-02-26T09:11:00;1.17;;;0.60;;
26696;SDS011;14312;52.614;13.496;2023-02-26T09:13:47;1.02;;;0.70;;
26696;SDS011;14312;52.614;13.496;2023-02-26T09:16:33;0.85;;;0.80;;
26696;SDS011;14312;52.614;13.496;2023-02-26T09:19:21;1.95;;;0.80;;
26696;SDS011;14312;52.614;13.496;2023-02-26T09:22:07;1.55;;;1.05;;
26696;SDS011;14312;52.614;13.496;2023-02-26T09:24:53;1.20;;;0.70;;
26696;SDS011;14312;52.614;13.496;2023-02-26T09:27:39;1.33;;;0.70;;
26696;SDS011;14312;52.614;13.496;2023-02-26T09:30:25;1.75;;;1.13;;
26696;SDS011;14312;52.614;13.496;2023-02-26T09:33:11;0.98;;;0.60;;
26696;SDS011;14312;52.614;13.496;2023-02-26T09:35:58;2.72;;;0.68;;
26696;SDS011;14312;52.614;13.496;2023-02-26T09:38:44;1.67;;;0.90;;
26696;SDS011;14312;52.614;13.496;2023-02-26T09:41:31;0.70;;;0.60;;
26696;SDS011;14312;52.614;13.496;2023-02-26T09:44:24;1.48;;;0.80;;
26696;SDS011;14312;52.614;13.496;2023-02-26T09:50:06;0.85;;;0.57;;
26696;SDS011;14312;52.614;13.496;2023-02-26T09:56:09;1.25;;;0.70;;
26696;SDS011;14312;52.614;13.496;2023-02-26T09:59:01;1.33;;;0.60;;
26696;SDS011;14312;52.614;13.496;2023-02-26T10:01:55;1.35;;;0.73;;
26696;SDS011;14312;52.614;13.496;2023-02-26T10:05:17;1.52;;;0.73;;
26696;SDS011;14312;52.614;13.496;2023-02-26T10:08:11;1.98;;;0.47;;
26696;SDS011;14312;52.614;13.496;2023-02-26T10:11:02;1.13;;;0.63;;
26696;SDS011;14312;52.614;13.496;2023-02-26T10:13:57;1.48;;;0.80;;
26696;SDS011;14312;52.614;13.496;2023-02-26T10:16:50;1.10;;;0.60;;
26696;SDS011;14312;52.614;13.496;2023-02-26T10:19:42;1.20;;;0.80;;
26696;SDS011;14312;52.614;13.496;2023-02-26T10:22:51;0.63;;;0.55;;
26696;SDS011;14312;52.614;13.496;2023-02-26T10:25:48;1.00;;;0.60;;
26696;SDS011;14312;52.614;13.496;2023-02-26T10:28:40;1.88;;;0.73;;
26696;SDS011;14312;52.614;13.496;2023-02-26T10:34:46;0.75;;;0.50;;
26696;SDS011;14312;52.614;13.496;2023-02-26T10:40:57;1.77;;;0.70;;
26696;SDS011;14312;52.614;13.496;2023-02-26T10:43:51;0.75;;;0.75;;
26696;SDS011;14312;52.614;13.496;2023-02-26T10:46:51;1.50;;;0.60;;
26696;SDS011;14312;52.614;13.496;2023-02-26T10:49:52;2.75;;;0.80;;
26696;SDS011;14312;52.614;13.496;2023-02-26T10:52:41;0.85;;;0.70;;
26696;SDS011;14312;52.614;13.496;2023-02-26T10:58:22;0.57;;;0.50;;
26696;SDS011;14312;52.614;13.496;2023-02-26T11:01:12;0.88;;;0.70;;
26696;SDS011;14312;52.614;13.496;2023-02-26T11:04:03;1.23;;;0.65;;
26696;SDS011;14312;52.614;13.496;2023-02-26T11:06:54;1.00;;;0.82;;
26696;SDS011;14312;52.614;13.496;2023-02-26T11:09:42;1.27;;;0.60;;
26696;SDS011;14312;52.614;13.496;2023-02-26T11:12:30;1.17;;;0.90;;
26696;SDS011;14312;52.614;13.496;2023-02-26T11:15:18;0.98;;;0.60;;
26696;SDS011;14312;52.614;13.496;2023-02-26T11:18:07;1.48;;;0.68;;
26696;SDS011;14312;52.614;13.496;2023-02-26T11:20:58;0.73;;;0.60;;
26696;SDS011;14312;52.614;13.496;2023-02-26T11:23:45;1.23;;;0.70;;
26696;SDS011;14312;52.614;13.496;2023-02-26T11:26:33;1.10;;;0.70;;
26696;SDS011;14312;52.614;13.496;2023-02-26T11:29:21;0.93;;;0.60;;
26696;SDS011;14312;52.614;13.496;2023-02-26T11:32:16;1.60;;;0.68;;
26696;SDS011;14312;52.614;13.496;2023-02-26T11:35:08;1.08;;;0.70;;
26696;SDS011;14312;52.614;13.496;2023-02-26T11:37:56;0.82;;;0.70;;
26696;SDS011;14312;52.614;13.496;2023-02-26T11:40:46;0.73;;;0.73;;
26696;SDS011;14312;52.614;13.496;2023-02-26T11:43:38;1.67;;;1.05;;
26696;SDS011;14312;52.614;13.496;2023-02-26T11:46:27;1.60;;;0.70;;
26696;SDS011;14312;52.614;13.496;2023-02-26T11:49:15;0.98;;;0.60;;
26696;SDS011;14312;52.614;13.496;2023-02-26T11:52:05;1.38;;;0.75;;
26696;SDS011;14312;52.614;13.496;2023-02-26T11:55:00;1.63;;;0.80;;
26696;SDS011;14312;52.614;13.496;2023-02-26T11:58:01;1.45;;;0.98;;
26696;SDS011;14312;52.614;13.496;2023-02-26T12:01:00;1.20;;;0.70;;
26696;SDS011;14312;52.614;13.496;2023-02-26T12:03:47;0.93;;;0.63;;
26696;SDS011;14312;52.614;13.496;2023-02-26T12:06:35;1.50;;;0.80;;
26696;SDS011;14312;52.614;13.496;2023-02-26T12:09:21;1.80;;;0.60;;
26696;SDS011;14312;52.614;13.496;2023-02-26T12:15:20;1.17;;;0.80;;
26696;SDS011;14312;52.614;13.496;2023-02-26T12:24:29;2.58;;;0.63;;
26696;SDS011;14312;52.614;13.496;2023-02-26T12:30:48;0.98;;;0.60;;
26696;SDS011;14312;52.614;13.496;2023-02-26T12:33:39;1.25;;;0.70;;
26696;SDS011;14312;52.614;13.496;2023-02-26T12:36:49;1.42;;;0.70;;
26696;SDS011;14312;52.614;13.496;2023-02-26T12:55:22;1.15;;;0.60;;
26696;SDS011;14312;52.614;13.496;2023-02-26T12:58:37;0.70;;;0.60;;
26696;SDS011;14312;52.614;13.496;2023-02-26T13:07:49;0.85;;;0.70;;
26696;SDS011;14312;52.614;13.496;2023-02-26T13:17:00;1.85;;;0.80;;
26696;SDS011;14312;52.614;13.496;2023-02-26T13:20:02;2.22;;;0.60;;
26696;SDS011;14312;52.614;13.496;2023-02-26T13:22:59;1.58;;;0.73;;
26696;SDS011;14312;52.614;13.496;2023-02-26T13:26:21;0.60;;;0.47;;
26696;SDS011;14312;52.614;13.496;2023-02-26T13:29:14;1.10;;;0.77;;
26696;SDS011;14312;52.614;13.496;2023-02-26T13:32:09;0.75;;;0.57;;
26696;SDS011;14312;52.614;13.496;2023-02-26T13:35:05;1.10;;;0.65;;
26696;SDS011;14312;52.614;13.496;2023-02-26T13:38:02;1.27;;;0.70;;
26696;SDS011;14312;52.614;13.496;2023-02-26T13:41:15;1.77;;;1.00;;
26696;SDS011;14312;52.614;13.496;2023-02-26T13:44:20;1.48;;;0.75;;
26696;SDS011;14312;52.614;13.496;2023-02-26T13:53:34;1.40;;;0.70;;
26696;SDS011;14312;52.614;13.496;2023-02-26T14:05:06;1.27;;;0.60;;
26696;SDS011;14312;52.614;13.496;2023-02-26T14:08:20;1.52;;;0.90;;
26696;SDS011;14312;52.614;13.496;2023-02-26T14:14:22;0.80;;;0.73;;
26696;SDS011;14312;52.614;13.496;2023-02-26T14:20:12;1.10;;;0.60;;
26696;SDS011;14312;52.614;13.496;2023-02-26T14:23:11;0.98;;;0.70;;
26696;SDS011;14312;52.614;13.496;2023-02-26T14:26:04;0.77;;;0.70;;
26696;SDS011;14312;52.614;13.496;2023-02-26T14:28:58;0.65;;;0.63;;
26696;SDS011;14312;52.614;13.496;2023-02-26T14:31:54;0.88;;;0.65;;
26696;SDS011;14312;52.614;13.496;2023-02-26T14:34:50;0.90;;;0.63;;
26696;SDS011;14312;52.614;13.496;2023-02-26T14:37:39;1.92;;;0.60;;
26696;SDS011;14312;52.614;13.496;2023-02-26T14:40:35;0.45;;;0.45;;
26696;SDS011;14312;52.614;13.496;2023-02-26T14:43:32;0.95;;;0.60;;
26696;SDS011;14312;52.614;13.496;2023-02-26T14:46:20;0.73;;;0.43;;
26696;SDS011;14312;52.614;13.496;2023-02-26T14:49:09;1.98;;;0.60;;
26696;SDS011;14312;52.614;13.496;2023-02-26T14:52:15;0.45;;;0.40;;
26696;SDS011;14312;52.614;13.496;2023-02-26T14:55:15;0.47;;;0.40;;
26696;SDS011;14312;52.614;13.496;2023-02-26T15:07:59;0.60;;;0.60;;
26696;SDS011;14312;52.614;13.496;2023-02-26T15:26:01;1.27;;;0.93;;
26696;SDS011;14312;52.614;13.496;2023-02-26T15:28:49;0.55;;;0.55;;
26696;SDS011;14312;52.614;13.496;2023-02-26T15:31:40;0.80;;;0.80;;
26696;SDS011;14312;52.614;13.496;2023-02-26T15:34:28;1.27;;;0.80;;
26696;SDS011;14312;52.614;13.496;2023-02-26T15:37:19;0.98;;;0.50;;
26696;SDS011;14312;52.614;13.496;2023-02-26T15:40:07;0.55;;;0.47;;
26696;SDS011;14312;52.614;13.496;2023-02-26T15:42:54;1.20;;;0.70;;
26696;SDS011;14312;52.614;13.496;2023-02-26T15:45:44;0.60;;;0.60;;
26696;SDS011;14312;52.614;13.496;2023-02-26T15:48:35;0.70;;;0.70;;
26696;SDS011;14312;52.614;13.496;2023-02-26T15:51:26;1.23;;;0.70;;
26696;SDS011;14312;52.614;13.496;2023-02-26T15:54:15;1.30;;;0.70;;
26696;SDS011;14312;52.614;13.496;2023-02-26T15:57:03;1.17;;;0.70;;
26696;SDS011;14312;52.614;13.496;2023-02-26T15:59:52;1.13;;;0.65;;
26696;SDS011;14312;52.614;13.496;2023-02-26T16:02:45;0.55;;;0.55;;
26696;SDS011;14312;52.614;13.496;2023-02-26T16:05:34;1.45;;;0.88;;
26696;SDS011;14312;52.614;13.496;2023-02-26T16:08:20;1.60;;;0.80;;
26696;SDS011;14312;52.614;13.496;2023-02-26T16:11:06;0.98;;;0.63;;
26696;SDS011;14312;52.614;13.496;2023-02-26T16:13:53;1.27;;;0.90;;
26696;SDS011;14312;52.614;13.496;2023-02-26T16:16:47;1.60;;;1.25;;
26696;SDS011;14312;52.614;13.496;2023-02-26T16:19:37;1.77;;;1.65;;
26696;SDS011;14312;52.614;13.496;2023-02-26T16:22:36;3.55;;;1.90;;
26696;SDS011;14312;52.614;13.496;2023-02-26T16:25:30;2.05;;;1.85;;
26696;SDS011;14312;52.614;13.496;2023-02-26T16:28:23;1.58;;;1.48;;
26696;SDS011;14312;52.614;13.496;2023-02-26T16:31:14;1.40;;;1.30;;
26696;SDS011;14312;52.614;13.496;2023-02-26T16:37:19;0.77;;;0.70;;
26696;SDS011;14312;52.614;13.496;2023-02-26T16:40:16;1.00;;;0.90;;
26696;SDS011;14312;52.614;13.496;2023-02-26T16:46:07;0.50;;;0.50;;
26696;SDS011;14312;52.614;13.496;2023-02-26T16:48:59;0.70;;;0.70;;
26696;SDS011;14312;52.614;13.496;2023-02-26T16:51:48;1.90;;;0.70;;
26696;SDS011;14312;52.614;13.496;2023-02-26T16:54:37;0.50;;;0.50;;
26696;SDS011;14312;52.614;13.496;2023-02-26T16:57:33;0.75;;;0.50;;
26696;SDS011;14312;52.614;13.496;2023-02-26T17:00:22;0.63;;;0.60;;
26696;SDS011;14312;52.614;13.496;2023-02-26T17:03:22;0.50;;;0.50;;
26696;SDS011;14312;52.614;13.496;2023-02-26T17:06:10;0.93;;;0.80;;
26696;SDS011;14312;52.614;13.496;2023-02-26T17:09:01;0.75;;;0.65;;
26696;SDS011;14312;52.614;13.496;2023-02-26T17:12:04;0.88;;;0.88;;
26696;SDS011;14312;52.614;13.496;2023-02-26T17:15:00;1.70;;;1.10;;
26696;SDS011;14312;52.614;13.496;2023-02-26T17:17:46;1.08;;;0.90;;
26696;SDS011;14312;52.614;13.496;2023-02-26T17:20:33;0.95;;;0.70;;
26696;SDS011;14312;52.614;13.496;2023-02-26T17:23:20;1.20;;;0.80;;
26696;SDS011;14312;52.614;13.496;2023-02-26T17:26:11;0.80;;;0.80;;
26696;SDS011;14312;52.614;13.496;2023-02-26T17:28:56;1.17;;;0.90;;
26696;SDS011;14312;52.614;13.496;2023-02-26T17:31:42;0.63;;;0.60;;
26696;SDS011;14312;52.614;13.496;2023-02-26T17:34:30;0.70;;;0.70;;
26696;SDS011;14312;52.614;13.496;2023-02-26T17:37:16;0.93;;;0.60;;
26696;SDS011;14312;52.614;13.496;2023-02-26T17:40:03;2.45;;;0.63;;
26696;SDS011;14312;52.614;13.496;2023-02-26T17:42:59;0.50;;;0.50;;
26696;SDS011;14312;52.614;13.496;2023-02-26T17:45:45;1.17;;;0.60;;
26696;SDS011;14312;52.614;13.496;2023-02-26T17:48:31;0.67;;;0.67;;
26696;SDS011;14312;52.614;13.496;2023-02-26T17:51:17;0.60;;;0.60;;
26696;SDS011;14312;52.614;13.496;2023-02-26T17:54:03;0.50;;;0.50;;
26696;SDS011;14312;52.614;13.496;2023-02-26T17:56:49;1.20;;;0.60;;
26696;SDS011;14312;52.614;13.496;2023-02-26T17:59:34;1.20;;;0.63;;
26696;SDS011;14312;52.614;13.496;2023-02-26T18:02:21;0.85;;;0.80;;
26696;SDS011;14312;52.614;13.496;2023-02-26T18:05:11;0.80;;;0.80;;
26696;SDS011;14312;52.614;13.496;2023-02-26T18:07:57;1.00;;;0.90;;
26696;SDS011;14312;52.614;13.496;2023-02-26T18:10:43;0.70;;;0.70;;
26696;SDS011;14312;52.614;13.496;2023-02-26T18:13:30;0.90;;;0.80;;
26696;SDS011;14312;52.614;13.496;2023-02-26T18:16:16;1.20;;;0.83;;
26696;SDS011;14312;52.614;13.496;2023-02-26T18:19:05;1.73;;;0.90;;
26696;SDS011;14312;52.614;13.496;2023-02-26T18:21:51;1.07;;;0.90;;
26696;SDS011;14312;52.614;13.496;2023-02-26T18:24:37;1.47;;;1.33;;
26696;SDS011;14312;52.614;13.496;2023-02-26T18:27:24;1.30;;;1.13;;
26696;SDS011;14312;52.614;13.496;2023-02-26T18:30:30;1.50;;;1.20;;
26696;SDS011;14312;52.614;13.496;2023-02-26T18:33:18;2.33;;;1.50;;
26696;SDS011;14312;52.614;13.496;2023-02-26T18:36:05;2.03;;;1.30;;
26696;SDS011;14312;52.614;13.496;2023-02-26T18:38:52;1.37;;;1.27;;
26696;SDS011;14312;52.614;13.496;2023-02-26T18:41:37;1.70;;;1.30;;
26696;SDS011;14312;52.614;13.496;2023-02-26T18:44:24;1.43;;;1.10;;
26696;SDS011;14312;52.614;13.496;2023-02-26T18:47:11;1.57;;;1.20;;
26696;SDS011;14312;52.614;13.496;2023-02-26T18:49:57;2.10;;;1.37;;
26696;SDS011;14312;52.614;13.496;2023-02-26T18:52:43;1.80;;;1.50;;
26696;SDS011;14312;52.614;13.496;2023-02-26T18:55:29;1.73;;;1.30;;
26696;SDS011;14312;52.614;13.496;2023-02-26T18:58:15;2.00;;;1.50;;
26696;SDS011;14312;52.614;13.496;2023-02-26T19:01:02;1.90;;;1.40;;
26696;SDS011;14312;52.614;13.496;2023-02-26T19:03:49;1.50;;;1.40;;
26696;SDS011;14312;52.614;13.496;2023-02-26T19:06:35;1.73;;;1.60;;
26696;SDS011;14312;52.614;13.496;2023-02-26T19:09:21;2.20;;;1.47;;
26696;SDS011;14312;52.614;13.496;2023-02-26T19:12:08;2.43;;;1.90;;
26696;SDS011;14312;52.614;13.496;2023-02-26T19:14:54;3.13;;;2.00;;
26696;SDS011;14312;52.614;13.496;2023-02-26T19:17:40;2.80;;;1.93;;
26696;SDS011;14312;52.614;13.496;2023-02-26T19:20:27;2.93;;;2.13;;
26696;SDS011;14312;52.614;13.496;2023-02-26T19:23:13;3.70;;;2.30;;
26696;SDS011;14312;52.614;13.496;2023-02-26T19:25:59;3.67;;;2.07;;
26696;SDS011;14312;52.614;13.496;2023-02-26T19:28:45;4.03;;;2.57;;
26696;SDS011;14312;52.614;13.496;2023-02-26T19:31:31;3.53;;;2.20;;
26696;SDS011;14312;52.614;13.496;2023-02-26T19:34:17;3.00;;;2.13;;
26696;SDS011;14312;52.614;13.496;2023-02-26T19:37:03;2.57;;;1.93;;
26696;SDS011;14312;52.614;13.496;2023-02-26T19:39:50;3.03;;;1.80;;
26696;SDS011;14312;52.614;13.496;2023-02-26T19:42:36;1.90;;;1.70;;
26696;SDS011;14312;52.614;13.496;2023-02-26T19:45:22;2.17;;;1.70;;
26696;SDS011;14312;52.614;13.496;2023-02-26T19:48:08;2.20;;;1.70;;
26696;SDS011;14312;52.614;13.496;2023-02-26T19:50:54;1.70;;;1.50;;
26696;SDS011;14312;52.614;13.496;2023-02-26T19:53:40;1.30;;;1.17;;
26696;SDS011;14312;52.614;13.496;2023-02-26T19:56:26;1.33;;;1.20;;
26696;SDS011;14312;52.614;13.496;2023-02-26T19:59:11;2.27;;;1.40;;
26696;SDS011;14312;52.614;13.496;2023-02-26T20:01:57;2.20;;;1.60;;
26696;SDS011;14312;52.614;13.496;2023-02-26T20:04:43;1.70;;;1.40;;
26696;SDS011;14312;52.614;13.496;2023-02-26T20:07:29;1.63;;;1.47;;
26696;SDS011;14312;52.614;13.496;2023-02-26T20:10:16;1.80;;;1.50;;
26696;SDS011;14312;52.614;13.496;2023-02-26T20:13:02;2.03;;;1.40;;
26696;SDS011;14312;52.614;13.496;2023-02-26T20:15:49;2.30;;;1.33;;
26696;SDS011;14312;52.614;13.496;2023-02-26T20:18:35;1.73;;;1.47;;
26696;SDS011;14312;52.614;13.496;2023-02-26T20:21:21;1.43;;;1.23;;
26696;SDS011;14312;52.614;13.496;2023-02-26T20:24:08;1.43;;;1.30;;
26696;SDS011;14312;52.614;13.496;2023-02-26T20:26:54;1.97;;;1.30;;
26696;SDS011;14312;52.614;13.496;2023-02-26T20:29:40;1.30;;;1.10;;
26696;SDS011;14312;52.614;13.496;2023-02-26T20:32:25;1.20;;;1.00;;
26696;SDS011;14312;52.614;13.496;2023-02-26T20:35:11;0.90;;;0.90;;
26696;SDS011;14312;52.614;13.496;2023-02-26T20:37:58;1.10;;;1.00;;
26696;SDS011;14312;52.614;13.496;2023-02-26T20:40:44;1.10;;;1.00;;
26696;SDS011;14312;52.614;13.496;2023-02-26T20:43:32;1.20;;;0.90;;
26696;SDS011;14312;52.614;13.496;2023-02-26T20:46:18;1.00;;;0.90;;
26696;SDS011;14312;52.614;13.496;2023-02-26T20:49:04;1.00;;;0.90;;
26696;SDS011;14312;52.614;13.496;2023-02-26T20:51:55;0.80;;;0.80;;
26696;SDS011;14312;52.614;13.496;2023-02-26T20:54:41;1.40;;;1.00;;
26696;SDS011;14312;52.614;13.496;2023-02-26T20:57:27;1.33;;;1.00;;
26696;SDS011;14312;52.614;13.496;2023-02-26T21:00:13;1.07;;;0.97;;
26696;SDS011;14312;52.614;13.496;2023-02-26T21:03:00;0.83;;;0.80;;
26696;SDS011;14312;52.614;13.496;2023-02-26T21:05:46;1.20;;;1.10;;
26696;SDS011;14312;52.614;13.496;2023-02-26T21:08:32;1.63;;;1.10;;
26696;SDS011;14312;52.614;13.496;2023-02-26T21:11:19;1.10;;;1.00;;
26696;SDS011;14312;52.614;13.496;2023-02-26T21:14:05;1.50;;;1.10;;
26696;SDS011;14312;52.614;13.496;2023-02-26T21:16:52;1.30;;;1.20;;
26696;SDS011;14312;52.614;13.496;2023-02-26T21:19:41;1.47;;;1.10;;
26696;SDS011;14312;52.614;13.496;2023-02-26T21:22:27;1.20;;;1.10;;
26696;SDS011;14312;52.614;13.496;2023-02-26T21:25:13;1.63;;;1.40;;
26696;SDS011;14312;52.614;13.496;2023-02-26T21:27:59;2.43;;;1.47;;
26696;SDS011;14312;52.614;13.496;2023-02-26T21:30:45;2.47;;;1.40;;
26696;SDS011;14312;52.614;13.496;2023-02-26T21:33:30;1.60;;;1.40;;
26696;SDS011;14312;52.614;13.496;2023-02-26T21:36:16;2.60;;;1.37;;
26696;SDS011;14312;52.614;13.496;2023-02-26T21:39:02;1.40;;;1.10;;
26696;SDS011;14312;52.614;13.496;2023-02-26T21:41:49;1.33;;;1.23;;
26696;SDS011;14312;52.614;13.496;2023-02-26T21:44:36;1.27;;;1.17;;
26696;SDS011;14312;52.614;13.496;2023-02-26T21:47:22;2.33;;;1.50;;
26696;SDS011;14312;52.614;13.496;2023-02-26T21:50:08;1.47;;;1.20;;
26696;SDS011;14312;52.614;13.496;2023-02-26T21:52:54;2.00;;;1.30;;
26696;SDS011;14312;52.614;13.496;2023-02-26T21:55:41;1.90;;;1.40;;
26696;SDS011;14312;52.614;13.496;2023-02-26T21:58:27;1.70;;;1.33;;
26696;SDS011;14312;52.614;13.496;2023-02-26T22:01:12;1.23;;;1.10;;
26696;SDS011;14312;52.614;13.496;2023-02-26T22:03:58;1.13;;;1.03;;
26696;SDS011;14312;52.614;13.496;2023-02-26T22:06:45;1.67;;;1.27;;
26696;SDS011;14312;52.614;13.496;2023-02-26T22:09:31;1.60;;;1.20;;
26696;SDS011;14312;52.614;13.496;2023-02-26T22:12:17;1.40;;;1.30;;
26696;SDS011;14312;52.614;13.496;2023-02-26T22:15:03;1.80;;;1.43;;
26696;SDS011;14312;52.614;13.496;2023-02-26T22:17:50;2.40;;;1.53;;
26696;SDS011;14312;52.614;13.496;2023-02-26T22:20:36;1.53;;;1.30;;
26696;SDS011;14312;52.614;13.496;2023-02-26T22:23:22;1.57;;;1.20;;
26696;SDS011;14312;52.614;13.496;2023-02-26T22:26:08;1.50;;;1.40;;
26696;SDS011;14312;52.614;13.496;2023-02-26T22:28:55;1.87;;;1.30;;
26696;SDS011;14312;52.614;13.496;2023-02-26T22:31:43;2.10;;;1.53;;
26696;SDS011;14312;52.614;13.496;2023-02-26T22:34:29;3.07;;;2.53;;
26696;SDS011;14312;52.614;13.496;2023-02-26T22:37:18;2.07;;;1.30;;
26696;SDS011;14312;52.614;13.496;2023-02-26T22:40:04;1.70;;;1.30;;
26696;SDS011;14312;52.614;13.496;2023-02-26T22:42:50;2.13;;;1.50;;
26696;SDS011;14312;52.614;13.496;2023-02-26T22:45:36;1.30;;;1.20;;
26696;SDS011;14312;52.614;13.496;2023-02-26T22:48:22;3.50;;;1.20;;
26696;SDS011;14312;52.614;13.496;2023-02-26T22:51:07;1.27;;;1.10;;
26696;SDS011;14312;52.614;13.496;2023-02-26T22:53:54;1.43;;;1.20;;
26696;SDS011;14312;52.614;13.496;2023-02-26T22:56:40;1.63;;;1.48;;
26696;SDS011;14312;52.614;13.496;2023-02-26T22:59:26;2.58;;;2.13;;
26696;SDS011;14312;52.614;13.496;2023-02-26T23:02:12;3.00;;;2.40;;
26696;SDS011;14312;52.614;13.496;2023-02-26T23:04:58;2.50;;;2.13;;
26696;SDS011;14312;52.614;13.496;2023-02-26T23:07:44;2.57;;;2.20;;
26696;SDS011;14312;52.614;13.496;2023-02-26T23:10:30;3.00;;;2.30;;
26696;SDS011;14312;52.614;13.496;2023-02-26T23:13:16;3.53;;;2.60;;
26696;SDS011;14312;52.614;13.496;2023-02-26T23:16:04;3.80;;;2.67;;
26696;SDS011;14312;52.614;13.496;2023-02-26T23:18:52;2.97;;;2.13;;
26696;SDS011;14312;52.614;13.496;2023-02-26T23:21:38;3.50;;;2.17;;
26696;SDS011;14312;52.614;13.496;2023-02-26T23:24:23;2.23;;;1.83;;
26696;SDS011;14312;52.614;13.496;2023-02-26T23:27:09;3.50;;;1.70;;
26696;SDS011;14312;52.614;13.496;2023-02-26T23:29:56;2.37;;;1.70;;
26696;SDS011;14312;52.614;13.496;2023-02-26T23:32:45;2.07;;;1.53;;
26696;SDS011;14312;52.614;13.496;2023-02-26T23:35:32;2.87;;;2.00;;
26696;SDS011;14312;52.614;13.496;2023-02-26T23:38:18;2.97;;;1.87;;
26696;SDS011;14312;52.614;13.496;2023-02-26T23:41:04;2.77;;;1.90;;
26696;SDS011;14312;52.614;13.496;2023-02-26T23:43:50;2.33;;;1.83;;
26696;SDS011;14312;52.614;13.496;2023-02-26T23:46:36;2.43;;;1.67;;
26696;SDS011;14312;52.614;13.496;2023-02-26T23:49:22;2.63;;;1.80;;
26696;SDS011;14312;52.614;13.496;2023-02-26T23:52:08;2.10;;;1.67;;
26696;SDS011;14312;52.614;13.496;2023-02-26T23:54:54;2.53;;;1.77;;
26696;SDS011;14312;52.614;13.496;2023-02-26T23:57:42;3.87;;;1.70;;
